Terminal Aerodrome Forecast
Issued by NWS Wilmington, OH

Current Version | Previous Version | Graphics & Text | Print | Product List | Glossary On
Versions: 1 2 3 4 5 6 7 8 9 10 11 12 13 14 15 16 17 18 19 20 21 22 23 24
000
FTUS41 KILN 292000 AAB
TAFCMH
TAF AMD
KCMH 292059Z 2921/3018 26018G27KT 4SM -DZ BR OVC013
     FM292300 27017G27KT P6SM OVC011
     FM300300 29015G23KT P6SM OVC012
     FM301100 31015G23KT P6SM OVC022
     FM301600 32014G22KT P6SM SCT025 BKN035=

USA.gov is the U.S. government's official web portal to all federal, state and local government web resources and services.